www.cux-wetter.de
Wetterdaten: Mittwoch, 20.03.2013
Datum Zeit Temp. A. Feuchte A. Luftdruck Regen Wind Richtung Richtung Sonnenschein Solar Taupunkt Windchill Windben
20.03.2013 00:00 -1,1 C 85 % 1004,5 hPa 0,0 l/m 10,9 km/h (2 Bft) O 90 0 min 0 W/m -3,3 C -5,4 C 10,9 km/h (2 Bft)
20.03.2013 00:15 -1,2 C 85 % 1004,5 hPa 0,0 l/m 13,3 km/h (3 Bft) O 80 0 min 0 W/m -3,4 C -7,3 C 13,3 km/h (3 Bft)
20.03.2013 00:30 -1,3 C 85 % 1004,5 hPa 0,0 l/m 15,1 km/h (3 Bft) O 85 0 min 0 W/m -3,5 C -8,6 C 15,1 km/h (3 Bft)
20.03.2013 00:45 -1,3 C 84 % 1004,5 hPa 0,0 l/m 11,0 km/h (2 Bft) O 95 0 min 0 W/m -3,6 C -5,7 C 11,0 km/h (2 Bft)
20.03.2013 01:00 -1,3 C 84 % 1004,5 hPa 0,0 l/m 6,7 km/h (2 Bft) O-NO 65 0 min 0 W/m -3,6 C -1,6 C 6,7 km/h (2 Bft)
20.03.2013 01:15 -1,4 C 84 % 1004,5 hPa 0,0 l/m 13,3 km/h (3 Bft) O-NO 75 0 min 0 W/m -3,7 C -7,6 C 13,3 km/h (3 Bft)
20.03.2013 01:30 -1,4 C 84 % 1005,5 hPa 0,0 l/m 11,6 km/h (2 Bft) O-NO 70 0 min 0 W/m -3,7 C -6,3 C 11,6 km/h (2 Bft)
20.03.2013 01:44 -1,4 C 84 % 1005,5 hPa 0,0 l/m 14,6 km/h (3 Bft) O 95 0 min 0 W/m -3,7 C -8,4 C 14,6 km/h (3 Bft)
20.03.2013 02:00 -1,4 C 84 % 1005,5 hPa 0,0 l/m 11,0 km/h (2 Bft) O-SO 105 0 min 0 W/m -3,7 C -5,8 C 11,0 km/h (2 Bft)
20.03.2013 02:15 -1,4 C 84 % 1005,5 hPa 0,0 l/m 12,7 km/h (3 Bft) O 85 0 min 0 W/m -3,7 C -7,1 C 12,7 km/h (3 Bft)
20.03.2013 02:30 -1,4 C 84 % 1005,5 hPa 0,0 l/m 12,6 km/h (3 Bft) O 85 0 min 0 W/m -3,7 C -7,1 C 12,6 km/h (3 Bft)
20.03.2013 02:44 -1,4 C 85 % 1005,5 hPa 0,0 l/m 9,8 km/h (2 Bft) O-NO 70 0 min 0 W/m -3,6 C -4,8 C 9,8 km/h (2 Bft)
20.03.2013 03:00 -1,5 C 85 % 1005,5 hPa 0,0 l/m 12,1 km/h (2 Bft) O-NO 70 0 min 0 W/m -3,7 C -6,8 C 12,1 km/h (2 Bft)
20.03.2013 03:15 -1,5 C 85 % 1005,5 hPa 0,0 l/m 16,1 km/h (3 Bft) O 80 0 min 0 W/m -3,7 C -9,5 C 16,1 km/h (3 Bft)
20.03.2013 03:30 -1,6 C 85 % 1005,5 hPa 0,0 l/m 12,6 km/h (3 Bft) O 100 0 min 0 W/m -3,8 C -7,3 C 12,6 km/h (3 Bft)
20.03.2013 03:44 -1,6 C 85 % 1005,5 hPa 0,0 l/m 13,4 km/h (3 Bft) O 95 0 min 0 W/m -3,8 C -7,9 C 13,4 km/h (3 Bft)
20.03.2013 04:00 -1,6 C 85 % 1005,5 hPa 0,0 l/m 9,9 km/h (2 Bft) O-NO 70 0 min 0 W/m -3,8 C -5,1 C 9,9 km/h (2 Bft)
20.03.2013 04:15 -1,6 C 85 % 1005,5 hPa 0,0 l/m 10,0 km/h (2 Bft) O 80 0 min 0 W/m -3,8 C -5,2 C 10,0 km/h (2 Bft)
20.03.2013 04:30 -1,6 C 85 % 1005,5 hPa 0,0 l/m 15,8 km/h (3 Bft) O-SO 120 0 min 0 W/m -3,8 C -9,4 C 15,8 km/h (3 Bft)
20.03.2013 04:45 -1,6 C 85 % 1005,5 hPa 0,0 l/m 14,6 km/h (3 Bft) O 85 0 min 0 W/m -3,8 C -8,7 C 14,6 km/h (3 Bft)
20.03.2013 05:00 -1,7 C 85 % 1005,5 hPa 0,0 l/m 13,0 km/h (3 Bft) O-SO 115 0 min 0 W/m -3,9 C -7,7 C 13,0 km/h (3 Bft)
20.03.2013 05:15 -1,7 C 85 % 1005,5 hPa 0,0 l/m 10,9 km/h (2 Bft) O 100 0 min 0 W/m -3,9 C -6,1 C 10,9 km/h (2 Bft)
20.03.2013 05:29 -1,8 C 84 % 1005,5 hPa 0,0 l/m 15,3 km/h (3 Bft) O-NO 60 0 min 0 W/m -4,1 C -9,4 C 15,3 km/h (3 Bft)
20.03.2013 05:45 -1,9 C 84 % 1005,5 hPa 0,0 l/m 9,1 km/h (2 Bft) O-NO 60 0 min 0 W/m -4,2 C -4,7 C 9,1 km/h (2 Bft)
20.03.2013 06:00 -1,9 C 84 % 1005,5 hPa 0,0 l/m 11,5 km/h (2 Bft) O 90 0 min 0 W/m -4,2 C -6,8 C 11,5 km/h (2 Bft)
20.03.2013 06:15 -1,8 C 85 % 1005,5 hPa 0,0 l/m 14,4 km/h (3 Bft) O-SO 115 0 min 0 W/m -4,0 C -8,8 C 14,4 km/h (3 Bft)
20.03.2013 06:29 -1,7 C 85 % 1005,5 hPa 0,0 l/m 10,6 km/h (2 Bft) O 80 0 min 0 W/m -3,9 C -5,8 C 10,6 km/h (2 Bft)
20.03.2013 06:45 -1,6 C 85 % 1005,5 hPa 0,0 l/m 11,1 km/h (2 Bft) O 95 0 min 0 W/m -3,8 C -6,1 C 11,1 km/h (2 Bft)
20.03.2013 07:00 -1,5 C 85 % 1005,5 hPa 0,0 l/m 16,0 km/h (3 Bft) O-SO 105 0 min 0 W/m -3,7 C -9,4 C 16,0 km/h (3 Bft)
20.03.2013 07:15 -1,4 C 85 % 1005,5 hPa 0,0 l/m 10,6 km/h (2 Bft) O 90 0 min 0 W/m -3,6 C -5,5 C 10,6 km/h (2 Bft)
20.03.2013 07:30 -1,2 C 85 % 1006,5 hPa 0,0 l/m 11,6 km/h (2 Bft) O 85 0 min 0 W/m -3,4 C -6,1 C 11,6 km/h (2 Bft)
20.03.2013 07:45 -1,1 C 85 % 1005,5 hPa 0,0 l/m 13,5 km/h (3 Bft) O-NO 75 0 min 0 W/m -3,3 C -7,3 C 13,5 km/h (3 Bft)
20.03.2013 08:00 -1,1 C 85 % 1005,5 hPa 0,0 l/m 15,5 km/h (3 Bft) O-SO 105 0 min 0 W/m -3,3 C -8,6 C 15,5 km/h (3 Bft)
20.03.2013 08:15 -1,0 C 85 % 1005,5 hPa 0,0 l/m 13,7 km/h (3 Bft) O 90 0 min 0 W/m -3,2 C -7,4 C 13,7 km/h (3 Bft)
20.03.2013 08:30 -0,9 C 84 % 1005,5 hPa 0,0 l/m 12,0 km/h (2 Bft) O 95 0 min 0 W/m -3,3 C -6,0 C 12,0 km/h (2 Bft)
20.03.2013 08:45 -0,7 C 84 % 1005,5 hPa 0,0 l/m 7,7 km/h (2 Bft) O 85 0 min 0 W/m -3,1 C -2,1 C 7,7 km/h (2 Bft)
20.03.2013 09:00 -0,5 C 84 % 1005,5 hPa 0,0 l/m 13,1 km/h (3 Bft) O 80 0 min 0 W/m -2,9 C -6,4 C 13,1 km/h (3 Bft)
20.03.2013 09:15 -0,4 C 84 % 1005,5 hPa 0,0 l/m 12,0 km/h (2 Bft) O-NO 75 0 min 0 W/m -2,8 C -5,5 C 12,0 km/h (2 Bft)
20.03.2013 09:30 -0,2 C 83 % 1006,5 hPa 0,0 l/m 13,8 km/h (3 Bft) O-SO 105 0 min 0 W/m -2,7 C -6,5 C 13,8 km/h (3 Bft)
20.03.2013 09:45 0,0 C 83 % 1006,5 hPa 0,0 l/m 18,9 km/h (3 Bft) O-NO 75 0 min 0 W/m -2,5 C -9,1 C 18,9 km/h (3 Bft)
20.03.2013 10:00 0,4 C 83 % 1006,5 hPa 0,0 l/m 14,6 km/h (3 Bft) O 85 0 min 0 W/m -2,1 C -6,3 C 14,6 km/h (3 Bft)
20.03.2013 10:15 0,7 C 82 % 1006,5 hPa 0,0 l/m 18,0 km/h (3 Bft) O 80 0 min 0 W/m -2,0 C -7,8 C 18,0 km/h (3 Bft)
20.03.2013 10:30 0,9 C 81 % 1006,5 hPa 0,0 l/m 12,0 km/h (2 Bft) O 85 0 min 0 W/m -2,0 C -4,0 C 12,0 km/h (2 Bft)
20.03.2013 10:45 0,9 C 80 % 1006,5 hPa 0,0 l/m 17,3 km/h (3 Bft) O 80 0 min 0 W/m -2,2 C -7,2 C 17,3 km/h (3 Bft)
20.03.2013 11:00 0,8 C 79 % 1006,5 hPa 0,0 l/m 10,1 km/h (2 Bft) O-NO 75 0 min 0 W/m -2,4 C -2,6 C 10,1 km/h (2 Bft)
20.03.2013 11:15 0,8 C 79 % 1006,5 hPa 0,0 l/m 13,9 km/h (3 Bft) O 90 0 min 0 W/m -2,4 C -5,3 C 13,9 km/h (3 Bft)
20.03.2013 11:30 0,8 C 79 % 1006,5 hPa 0,0 l/m 11,8 km/h (2 Bft) O 80 0 min 0 W/m -2,4 C -3,9 C 11,8 km/h (2 Bft)
20.03.2013 11:45 0,8 C 79 % 1006,5 hPa 0,0 l/m 13,0 km/h (3 Bft) O 80 0 min 0 W/m -2,4 C -4,8 C 13,0 km/h (3 Bft)
20.03.2013 12:00 0,9 C 78 % 1006,5 hPa 0,0 l/m 13,0 km/h (3 Bft) O-NO 70 0 min 0 W/m -2,5 C -4,6 C 13,0 km/h (3 Bft)
20.03.2013 12:15 0,9 C 78 % 1006,5 hPa 0,0 l/m 9,0 km/h (2 Bft) O 95 0 min 0 W/m -2,5 C -1,6 C 9,0 km/h (2 Bft)
20.03.2013 12:30 1,0 C 78 % 1006,5 hPa 0,0 l/m 9,4 km/h (2 Bft) O 100 0 min 0 W/m -2,4 C -1,9 C 9,4 km/h (2 Bft)
20.03.2013 12:45 1,2 C 79 % 1006,5 hPa 0,0 l/m 9,9 km/h (2 Bft) O-NO 65 0 min 0 W/m -2,0 C -2,0 C 9,9 km/h (2 Bft)
20.03.2013 13:00 1,4 C 78 % 1006,5 hPa 0,0 l/m 14,0 km/h (3 Bft) O-SO 105 0 min 0 W/m -2,0 C -4,7 C 14,0 km/h (3 Bft)
20.03.2013 13:15 1,5 C 76 % 1006,5 hPa 0,0 l/m 14,1 km/h (3 Bft) O-NO 75 0 min 0 W/m -2,3 C -4,6 C 14,1 km/h (3 Bft)
20.03.2013 13:30 1,7 C 76 % 1006,5 hPa 0,0 l/m 15,7 km/h (3 Bft) O-NO 70 0 min 0 W/m -2,1 C -5,3 C 15,7 km/h (3 Bft)
20.03.2013 13:45 1,9 C 76 % 1006,5 hPa 0,0 l/m 12,0 km/h (2 Bft) O-NO 60 0 min 0 W/m -1,9 C -2,8 C 12,0 km/h (2 Bft)
20.03.2013 14:00 1,9 C 75 % 1006,5 hPa 0,0 l/m 7,8 km/h (2 Bft) O 90 0 min 0 W/m -2,1 C 0,5 C 7,8 km/h (2 Bft)
20.03.2013 14:15 1,9 C 75 % 1006,5 hPa 0,0 l/m 12,7 km/h (3 Bft) O 80 0 min 0 W/m -2,1 C -3,3 C 12,7 km/h (3 Bft)
20.03.2013 14:30 1,9 C 76 % 1006,5 hPa 0,0 l/m 11,0 km/h (2 Bft) O 95 0 min 0 W/m -1,9 C -2,1 C 11,0 km/h (2 Bft)
20.03.2013 14:45 1,9 C 75 % 1006,5 hPa 0,0 l/m 11,9 km/h (2 Bft) O-NO 75 0 min 0 W/m -2,1 C -2,7 C 11,9 km/h (2 Bft)
20.03.2013 15:00 1,9 C 75 % 1007,5 hPa 0,0 l/m 10,1 km/h (2 Bft) NO 55 0 min 0 W/m -2,1 C -1,4 C 10,1 km/h (2 Bft)
20.03.2013 15:15 1,8 C 75 % 1007,5 hPa 0,0 l/m 19,0 km/h (3 Bft) O-NO 75 0 min 0 W/m -2,1 C -6,9 C 19,0 km/h (3 Bft)
20.03.2013 15:30 1,6 C 76 % 1007,5 hPa 0,0 l/m 10,6 km/h (2 Bft) O-NO 70 0 min 0 W/m -2,2 C -2,1 C 10,6 km/h (2 Bft)
20.03.2013 15:45 1,7 C 76 % 1006,5 hPa 0,0 l/m 10,1 km/h (2 Bft) O 80 0 min 0 W/m -2,1 C -1,7 C 10,1 km/h (2 Bft)
20.03.2013 16:00 1,6 C 76 % 1007,5 hPa 0,0 l/m 14,6 km/h (3 Bft) O 80 0 min 0 W/m -2,2 C -4,8 C 14,6 km/h (3 Bft)
20.03.2013 16:15 1,4 C 76 % 1007,5 hPa 0,0 l/m 13,3 km/h (3 Bft) O-NO 75 0 min 0 W/m -2,4 C -4,3 C 13,3 km/h (3 Bft)
20.03.2013 16:30 1,3 C 77 % 1007,5 hPa 0,0 l/m 7,8 km/h (2 Bft) O-NO 60 0 min 0 W/m -2,3 C -0,1 C 7,8 km/h (2 Bft)
20.03.2013 16:45 1,2 C 78 % 1007,5 hPa 0,0 l/m 11,8 km/h (2 Bft) O 80 0 min 0 W/m -2,2 C -3,5 C 11,8 km/h (2 Bft)
20.03.2013 17:01 1,2 C 78 % 1007,5 hPa 0,0 l/m 10,8 km/h (2 Bft) O-NO 60 0 min 0 W/m -2,2 C -2,7 C 10,8 km/h (2 Bft)
20.03.2013 17:15 1,2 C 79 % 1007,5 hPa 0,0 l/m 14,7 km/h (3 Bft) O 90 0 min 0 W/m -2,0 C -5,4 C 14,7 km/h (3 Bft)
20.03.2013 17:30 1,1 C 80 % 1007,5 hPa 0,0 l/m 10,5 km/h (2 Bft) O-NO 70 0 min 0 W/m -2,0 C -2,6 C 10,5 km/h (2 Bft)
20.03.2013 17:45 1,0 C 80 % 1007,5 hPa 0,0 l/m 11,6 km/h (2 Bft) NO 50 0 min 0 W/m -2,1 C -3,6 C 11,6 km/h (2 Bft)
20.03.2013 18:00 0,9 C 81 % 1008,5 hPa 0,0 l/m 14,8 km/h (3 Bft) O-NO 70 0 min 0 W/m -2,0 C -5,8 C 14,8 km/h (3 Bft)
20.03.2013 18:15 0,7 C 81 % 1008,5 hPa 0,0 l/m 12,0 km/h (2 Bft) O-NO 70 0 min 0 W/m -2,2 C -4,2 C 12,0 km/h (2 Bft)
20.03.2013 18:30 0,7 C 82 % 1008,5 hPa 0,0 l/m 15,3 km/h (3 Bft) O-NO 65 0 min 0 W/m -2,0 C -6,3 C 15,3 km/h (3 Bft)
20.03.2013 18:46 0,7 C 82 % 1008,5 hPa 0,0 l/m 15,3 km/h (3 Bft) O-NO 65 0 min 0 W/m -2,0 C -6,3 C 15,3 km/h (3 Bft)
20.03.2013 19:00 0,7 C 83 % 1009,5 hPa 0,0 l/m 16,8 km/h (3 Bft) O-NO 70 0 min 0 W/m -1,8 C -7,1 C 16,8 km/h (3 Bft)
20.03.2013 19:15 0,7 C 83 % 1009,5 hPa 0,0 l/m 15,5 km/h (3 Bft) O-NO 75 0 min 0 W/m -1,8 C -6,4 C 15,5 km/h (3 Bft)
20.03.2013 19:30 0,6 C 83 % 1009,5 hPa 0,0 l/m 11,9 km/h (2 Bft) O 85 0 min 0 W/m -1,9 C -4,2 C 11,9 km/h (2 Bft)
20.03.2013 19:45 0,5 C 83 % 1009,5 hPa 0,0 l/m 15,3 km/h (3 Bft) NO 55 0 min 0 W/m -2,0 C -6,6 C 15,3 km/h (3 Bft)
20.03.2013 20:00 0,5 C 83 % 1010,5 hPa 0,0 l/m 17,1 km/h (3 Bft) O-NO 70 0 min 0 W/m -2,0 C -7,6 C 17,1 km/h (3 Bft)
20.03.2013 20:15 0,4 C 83 % 1010,5 hPa 0,0 l/m 13,1 km/h (3 Bft) O 90 0 min 0 W/m -2,1 C -5,3 C 13,1 km/h (3 Bft)
20.03.2013 20:30 0,4 C 83 % 1010,5 hPa 0,0 l/m 16,0 km/h (3 Bft) O-NO 70 0 min 0 W/m -2,1 C -7,1 C 16,0 km/h (3 Bft)
20.03.2013 20:45 0,4 C 84 % 1010,5 hPa 0,0 l/m 13,8 km/h (3 Bft) O 80 0 min 0 W/m -2,0 C -5,8 C 13,8 km/h (3 Bft)
20.03.2013 21:00 0,3 C 84 % 1010,5 hPa 0,0 l/m 14,6 km/h (3 Bft) O-NO 70 0 min 0 W/m -2,1 C -6,4 C 14,6 km/h (3 Bft)
20.03.2013 21:16 0,3 C 84 % 1010,5 hPa 0,0 l/m 12,1 km/h (2 Bft) NO 55 0 min 0 W/m -2,1 C -4,7 C 12,1 km/h (2 Bft)
20.03.2013 21:30 0,4 C 85 % 1010,5 hPa 0,0 l/m 14,3 km/h (3 Bft) O-NO 65 0 min 0 W/m -1,8 C -6,1 C 14,3 km/h (3 Bft)
20.03.2013 21:45 0,4 C 84 % 1011,5 hPa 0,0 l/m 16,6 km/h (3 Bft) O-NO 75 0 min 0 W/m -2,0 C -7,4 C 16,6 km/h (3 Bft)
20.03.2013 22:00 0,4 C 85 % 1011,5 hPa 0,0 l/m 16,1 km/h (3 Bft) O-NO 70 0 min 0 W/m -1,8 C -7,1 C 16,1 km/h (3 Bft)
20.03.2013 22:15 0,3 C 85 % 1011,5 hPa 0,0 l/m 13,0 km/h (3 Bft) O-NO 70 0 min 0 W/m -1,9 C -5,4 C 13,0 km/h (3 Bft)
20.03.2013 22:30 0,3 C 85 % 1011,5 hPa 0,0 l/m 9,2 km/h (2 Bft) NO 45 0 min 0 W/m -1,9 C -2,4 C 9,2 km/h (2 Bft)
20.03.2013 22:45 0,3 C 85 % 1011,5 hPa 0,0 l/m 14,6 km/h (3 Bft) O-NO 75 0 min 0 W/m -1,9 C -6,4 C 14,6 km/h (3 Bft)
20.03.2013 23:00 0,3 C 85 % 1011,5 hPa 0,0 l/m 13,5 km/h (3 Bft) NO 55 0 min 0 W/m -1,9 C -5,7 C 13,5 km/h (3 Bft)
20.03.2013 23:15 0,3 C 85 % 1012,5 hPa 0,0 l/m 12,6 km/h (3 Bft) O-NO 70 0 min 0 W/m -1,9 C -5,1 C 12,6 km/h (3 Bft)
20.03.2013 23:30 0,3 C 85 % 1012,5 hPa 0,0 l/m 14,9 km/h (3 Bft) O 90 0 min 0 W/m -1,9 C -6,6 C 14,9 km/h (3 Bft)
20.03.2013 23:45 0,3 C 85 % 1012,5 hPa 0,0 l/m 12,0 km/h (2 Bft) NO 55 0 min 0 W/m -1,9 C -4,7 C 12,0 km/h (2 Bft)
_ Min-Zeit 05:45 14:00 00:00 - 01:00 - - - - 05:45 03:15 01:00
Minimum _ -1,9 C 75 % 1004,5 hPa - 6,7 km/h (2 Bft) - - - - -4,2 C -9,5 C 6,7 km/h (2 Bft)
_ Max-Zeit 13:45 00:00 23:15 00:00 15:15 - - 00:00 00:00 21:30 14:00 15:15
Maximum _ 1,9 C 85 % 1012,5 hPa 0,0 l/m 19,0 km/h
O-NO (3 Bft)
- - 0 min 0 W/m -1,8 C 0,5 C 19,0 km/h
O-NO (3 Bft)
Durchschnitt _ 0,0 C 82 % 1007,2 hPa #0,0 l/m 12,9 km/h (3 Bft) O - #0 min. 0 W/m -2,7 C -5,5 C 12,9 km/h (3 Bft)
copyright by Holger Just